createdAt,value
2022-08-02T00:01:21.845Z,54.14
2022-08-02T00:03:49.756Z,54.73
2022-08-02T00:06:17.471Z,54.54
2022-08-02T00:08:44.910Z,54.47
2022-08-02T01:03:25.921Z,56.97
2022-08-02T01:06:02.391Z,57.11
2022-08-02T01:08:41.365Z,56.45
2022-08-02T01:11:11.568Z,56.85
2022-08-02T01:13:39.202Z,57.50
2022-08-02T01:16:15.121Z,57.49
2022-08-02T01:18:46.078Z,57.16
2022-08-02T01:21:33.827Z,57.04
2022-08-02T01:24:23.982Z,57.30
2022-08-02T01:27:04.683Z,57.24
2022-08-02T01:29:35.444Z,57.28
2022-08-02T01:32:11.394Z,57.55
2022-08-02T01:34:54.958Z,57.46
2022-08-02T01:37:43.536Z,57.27
2022-08-02T01:40:21.386Z,57.29
2022-08-02T01:42:52.018Z,57.19
2022-08-02T01:45:21.297Z,57.78
2022-08-02T01:47:49.282Z,57.97
2022-08-02T01:50:18.277Z,57.89
2022-08-02T01:52:53.483Z,58.08
2022-08-02T01:55:33.384Z,57.96
2022-08-02T01:58:05.557Z,58.70
2022-08-02T02:00:35.721Z,59.44
2022-08-02T02:03:05.637Z,58.86
2022-08-02T02:05:35.288Z,58.93
2022-08-02T02:08:04.617Z,58.67
2022-08-02T02:10:34.102Z,58.27
2022-08-02T02:13:05.533Z,58.33
2022-08-02T02:15:33.379Z,58.68
2022-08-02T02:18:12.475Z,58.34
2022-08-02T02:20:42.643Z,58.31
2022-08-02T02:23:11.379Z,58.77
2022-08-02T02:25:46.546Z,58.92
2022-08-02T02:28:18.803Z,59.83
2022-08-02T02:30:49.355Z,60.04
2022-08-02T02:33:18.747Z,60.02
2022-08-02T02:35:48.329Z,59.61
2022-08-02T02:38:18.408Z,59.92
2022-08-02T02:40:50.017Z,59.64
2022-08-02T02:43:17.734Z,59.40
2022-08-02T02:45:45.908Z,59.31
2022-08-02T02:48:15.013Z,60.09
2022-08-02T02:50:43.448Z,59.55
2022-08-02T02:53:12.116Z,60.20
2022-08-02T02:55:41.173Z,60.29
2022-08-02T02:58:29.153Z,60.22
2022-08-02T03:01:21.113Z,59.41
2022-08-02T03:04:10.956Z,59.48
2022-08-02T03:06:39.893Z,60.11
2022-08-02T03:09:08.551Z,60.65
2022-08-02T03:11:40.505Z,60.51
2022-08-02T03:14:12.367Z,60.18
2022-08-02T03:16:44.200Z,60.01
2022-08-02T03:19:11.783Z,59.58
2022-08-02T03:21:39.713Z,60.22
2022-08-02T03:24:08.036Z,60.38
2022-08-02T03:26:36.145Z,60.34
2022-08-02T03:29:10.233Z,60.77
2022-08-02T03:31:41.974Z,60.38
2022-08-02T03:34:10.306Z,60.53
2022-08-02T03:36:39.049Z,60.35
2022-08-02T03:39:07.092Z,61.20
2022-08-02T03:41:36.682Z,60.65
2022-08-02T03:44:05.101Z,60.70
2022-08-02T03:46:33.186Z,60.73
2022-08-02T03:49:02.743Z,60.91
2022-08-02T03:51:30.481Z,60.92
2022-08-02T03:53:58.085Z,61.52
2022-08-02T03:56:25.894Z,61.72
2022-08-02T03:59:14.565Z,61.45
2022-08-02T04:01:42.801Z,61.13
2022-08-02T04:04:10.757Z,61.44
2022-08-02T04:06:40.084Z,61.37
2022-08-02T04:09:10.411Z,61.58
2022-08-02T04:11:38.328Z,61.35
2022-08-02T04:14:09.799Z,60.96
2022-08-02T04:17:03.308Z,60.45
2022-08-02T04:19:49.023Z,60.41
2022-08-02T04:22:20.035Z,60.09
2022-08-02T04:24:51.310Z,59.97
2022-08-02T04:27:51.221Z,59.42
2022-08-02T04:30:08.980Z,59.39
2022-08-02T04:32:37.150Z,59.81
2022-08-02T04:35:21.431Z,59.65
2022-08-02T04:38:09.491Z,58.00
2022-08-02T04:40:37.750Z,58.53
2022-08-02T04:43:06.215Z,58.02
2022-08-02T04:45:33.701Z,58.07
2022-08-02T04:48:05.050Z,58.09
2022-08-02T04:50:33.858Z,58.37
2022-08-02T04:53:01.830Z,57.92
2022-08-02T04:55:30.267Z,57.88
2022-08-02T04:57:58.638Z,57.56
2022-08-02T05:00:28.094Z,57.36
2022-08-02T05:02:59.751Z,56.64
2022-08-02T05:05:28.467Z,56.41
2022-08-02T05:07:56.077Z,56.15
2022-08-02T05:10:23.878Z,55.80
2022-08-02T05:12:52.131Z,55.53
2022-08-02T05:15:19.575Z,55.86
2022-08-02T05:17:50.917Z,55.53
2022-08-02T05:20:20.341Z,54.08
2022-08-02T05:22:48.066Z,53.72
2022-08-02T05:25:15.714Z,53.46
2022-08-02T05:27:43.667Z,52.73
2022-08-02T05:30:11.630Z,50.92
2022-08-02T05:32:50.519Z,50.19
2022-08-02T05:35:20.410Z,50.68
2022-08-02T05:37:52.189Z,51.53
2022-08-02T05:40:25.656Z,51.29
2022-08-02T05:42:54.616Z,51.84
2022-08-02T05:45:23.028Z,51.02
2022-08-02T05:47:51.055Z,50.31
2022-08-02T05:50:19.417Z,50.59
2022-08-02T05:52:52.384Z,51.30
2022-08-02T05:55:41.966Z,50.86
2022-08-02T05:58:29.873Z,49.85
2022-08-02T06:01:00.781Z,49.77
2022-08-02T06:03:36.984Z,50.36
2022-08-02T06:06:16.360Z,49.20
2022-08-02T06:08:47.953Z,47.64
2022-08-02T06:11:18.500Z,47.69
2022-08-02T06:13:47.109Z,46.64
2022-08-02T06:16:14.960Z,43.24
2022-08-02T06:18:43.788Z,45.09
2022-08-02T06:22:32.482Z,45.07
2022-08-02T06:24:02.669Z,45.27
2022-08-02T06:26:30.544Z,44.98
2022-08-02T06:28:58.749Z,44.29
2022-08-02T06:31:26.775Z,44.48
2022-08-02T06:33:57.730Z,44.48
2022-08-02T06:36:43.486Z,43.08
2022-08-02T06:39:25.867Z,43.34
2022-08-02T06:41:56.888Z,43.60
2022-08-02T06:44:48.121Z,43.63
2022-08-02T06:47:13.493Z,43.65
2022-08-02T06:49:52.155Z,41.66
2022-08-02T06:59:39.711Z,41.60
2022-08-02T07:02:08.145Z,41.02
2022-08-02T07:04:39.347Z,40.94
2022-08-02T07:07:10.399Z,42.07
2022-08-02T07:09:57.017Z,40.83
2022-08-02T07:12:35.210Z,40.38
2022-08-02T07:15:07.598Z,39.61
2022-08-02T07:17:35.965Z,39.83
2022-08-02T07:20:07.307Z,40.51
2022-08-02T07:22:36.463Z,39.66
2022-08-02T07:25:05.556Z,38.50
2022-08-02T07:27:35.225Z,39.24
2022-08-02T07:30:07.712Z,38.71
2022-08-02T07:32:36.457Z,38.68
2022-08-02T07:35:06.555Z,38.81
2022-08-02T07:37:55.307Z,38.03
2022-08-02T07:40:25.768Z,38.00
2022-08-02T07:50:12.438Z,35.95
2022-08-02T07:52:40.902Z,35.54
2022-08-02T07:55:13.426Z,36.12
2022-08-02T07:57:46.407Z,37.79
2022-08-02T08:00:16.862Z,35.32
2022-08-02T08:02:49.064Z,35.25
2022-08-02T08:05:19.508Z,36.35
2022-08-02T08:07:49.705Z,35.61
2022-08-02T08:10:17.752Z,35.73
2022-08-02T08:12:46.296Z,36.37
2022-08-02T08:15:15.312Z,36.44
2022-08-02T08:17:44.386Z,35.24
2022-08-02T08:20:16.045Z,35.36
2022-08-02T08:22:44.270Z,35.66
2022-08-02T08:25:13.336Z,35.03
2022-08-02T08:27:52.702Z,34.49
2022-08-02T08:30:31.360Z,35.56
2022-08-02T08:33:08.514Z,34.54
2022-08-02T08:35:44.191Z,34.94
2022-08-02T08:38:12.987Z,33.83
2022-08-02T08:40:42.253Z,34.64
2022-08-02T08:43:14.151Z,35.70
2022-08-02T08:45:55.952Z,34.62
2022-08-02T08:51:16.336Z,33.81
2022-08-02T08:53:44.495Z,32.93
2022-08-02T08:56:16.292Z,32.53
2022-08-02T08:58:47.675Z,32.99
2022-08-02T09:01:17.907Z,31.10
2022-08-02T09:03:46.666Z,31.87
2022-08-02T09:06:14.986Z,31.53
2022-08-02T09:08:43.261Z,31.04
2022-08-02T09:11:16.927Z,30.59
2022-08-02T09:13:53.061Z,30.04
2022-08-02T09:16:37.476Z,28.21
2022-08-02T09:19:26.056Z,27.74
2022-08-02T09:22:08.010Z,29.40
2022-08-02T09:24:45.976Z,29.87
2022-08-02T09:27:19.723Z,28.43
2022-08-02T09:30:12.424Z,28.20
2022-08-02T09:32:52.568Z,28.29
2022-08-02T09:36:06.998Z,28.32
2022-08-02T09:38:35.668Z,27.77
2022-08-02T09:41:06.201Z,28.57
2022-08-02T09:43:52.014Z,28.06
2022-08-02T09:46:30.968Z,28.78
2022-08-02T09:49:09.760Z,29.81
2022-08-02T09:51:51.439Z,28.17
2022-08-02T09:54:22.285Z,29.21
2022-08-02T09:56:54.103Z,28.33
2022-08-02T09:59:30.282Z,28.23
2022-08-02T10:02:17.129Z,27.75
2022-08-02T10:04:53.415Z,28.31
2022-08-02T10:07:31.413Z,29.47
2022-08-02T10:10:02.332Z,30.64
2022-08-02T10:12:37.458Z,28.31
2022-08-02T10:15:09.472Z,28.66
2022-08-02T10:17:44.475Z,29.33
2022-08-02T10:20:17.827Z,29.03
2022-08-02T10:25:28.439Z,30.50
2022-08-02T10:28:06.032Z,33.08
2022-08-02T10:33:19.510Z,29.56
2022-08-02T10:36:04.435Z,29.71
2022-08-02T10:38:36.609Z,27.93
2022-08-02T10:41:20.416Z,30.70
2022-08-02T10:46:37.433Z,29.90
2022-08-02T10:49:37.443Z,29.61
2022-08-02T10:52:03.194Z,28.38
2022-08-02T10:54:31.790Z,27.42
2022-08-02T10:57:15.958Z,28.36
2022-08-02T11:00:17.340Z,28.59
2022-08-02T11:02:53.206Z,28.95
2022-08-02T11:05:42.549Z,29.30
2022-08-02T11:08:22.515Z,29.73
2022-08-02T11:10:50.512Z,29.48
2022-08-02T11:13:20.436Z,29.34
2022-08-02T11:16:11.193Z,30.10
2022-08-02T11:18:51.918Z,30.84
2022-08-02T11:21:29.377Z,29.49
2022-08-02T11:24:25.464Z,30.77
2022-08-02T11:27:05.393Z,30.01
2022-08-02T11:29:41.502Z,30.67
2022-08-02T11:32:30.631Z,30.84
2022-08-02T11:35:03.513Z,30.18
2022-08-02T11:37:37.898Z,30.55
2022-08-02T11:40:19.818Z,29.96
2022-08-02T11:42:51.632Z,30.52
2022-08-02T11:45:29.621Z,29.89
2022-08-02T11:48:00.034Z,33.49
2022-08-02T11:50:30.696Z,28.37
2022-08-02T11:53:00.546Z,32.36
2022-08-02T11:55:32.514Z,28.69
2022-08-02T11:58:04.571Z,26.52
2022-08-02T12:00:36.409Z,27.46
2022-08-02T12:03:08.620Z,28.45
2022-08-02T12:08:25.941Z,30.47
2022-08-02T12:11:01.223Z,30.58
2022-08-02T12:13:56.796Z,30.87
2022-08-02T12:16:57.417Z,29.71
2022-08-02T12:19:29.677Z,30.97
2022-08-02T12:22:24.261Z,31.01
2022-08-02T12:24:56.707Z,31.34
2022-08-02T12:27:33.643Z,30.58
2022-08-02T12:30:27.679Z,30.71
2022-08-02T12:33:13.298Z,29.83
2022-08-02T12:35:47.349Z,29.66
2022-08-02T12:38:28.738Z,30.94
2022-08-02T12:41:30.861Z,30.33
2022-08-02T12:44:02.841Z,34.61
2022-08-02T12:46:41.947Z,27.87
2022-08-02T12:49:21.295Z,27.41
2022-08-02T12:51:57.684Z,28.28
2022-08-02T12:54:33.319Z,28.31
2022-08-02T12:57:17.877Z,28.63
2022-08-02T12:59:54.311Z,26.60
2022-08-02T13:02:27.409Z,28.50
2022-08-02T13:05:04.259Z,27.28
2022-08-02T13:07:43.367Z,25.97
2022-08-02T13:10:12.595Z,26.94
2022-08-02T13:12:48.362Z,26.13
2022-08-02T13:15:49.818Z,26.36
2022-08-02T13:18:06.295Z,25.98
2022-08-02T13:20:49.566Z,25.96
2022-08-02T13:23:21.622Z,25.50
2022-08-02T13:25:52.626Z,25.94
2022-08-02T13:28:32.394Z,25.82
2022-08-02T13:31:34.166Z,25.11
2022-08-02T13:34:00.610Z,23.87
2022-08-02T13:36:28.945Z,25.88
2022-08-02T13:38:57.905Z,24.14
2022-08-02T13:41:34.603Z,23.98
2022-08-02T13:44:13.761Z,23.61
2022-08-02T13:46:45.319Z,23.90
2022-08-02T13:49:19.041Z,24.05
2022-08-02T13:51:49.577Z,23.73
2022-08-02T13:54:22.313Z,24.48
2022-08-02T13:56:50.983Z,24.79
2022-08-02T13:59:55.829Z,23.95
2022-08-02T14:02:17.224Z,24.40
2022-08-02T14:04:50.510Z,23.88
2022-08-02T14:07:39.133Z,24.94
2022-08-02T14:10:12.734Z,23.70
2022-08-02T14:12:43.317Z,25.04
2022-08-02T14:15:11.436Z,23.67
2022-08-02T14:17:47.697Z,24.61
2022-08-02T14:20:20.165Z,24.39
2022-08-02T14:22:56.351Z,23.88
2022-08-02T14:25:31.369Z,24.77
2022-08-02T14:28:07.533Z,24.76
2022-08-02T14:30:37.609Z,24.81
2022-08-02T14:33:06.367Z,24.84
2022-08-02T14:38:14.615Z,24.71
2022-08-02T14:40:46.357Z,26.07
2022-08-02T14:43:35.946Z,23.88
2022-08-02T14:46:10.330Z,24.52
2022-08-02T14:51:14.482Z,25.28
2022-08-02T14:54:02.821Z,24.38
2022-08-02T14:59:13.369Z,24.68
2022-08-02T15:01:43.699Z,24.42
2022-08-02T15:04:20.072Z,24.37
2022-08-02T15:06:55.289Z,24.77
2022-08-02T15:09:25.467Z,24.39
2022-08-02T15:12:05.650Z,25.38
2022-08-02T15:14:45.012Z,26.32
2022-08-02T15:17:17.167Z,26.68
2022-08-02T15:19:58.099Z,26.04
2022-08-02T15:22:31.428Z,26.18
2022-08-02T15:25:16.910Z,26.26
2022-08-02T15:27:47.705Z,27.91
2022-08-02T15:30:15.642Z,26.77
2022-08-02T15:32:52.855Z,27.05
2022-08-02T15:35:26.402Z,26.30
2022-08-02T15:38:01.620Z,26.54
2022-08-02T15:40:48.430Z,26.47
2022-08-02T15:43:27.438Z,26.32
2022-08-02T15:46:03.639Z,25.99
2022-08-02T15:48:32.344Z,26.28
2022-08-02T15:51:06.495Z,25.69
2022-08-02T15:53:36.663Z,25.92
2022-08-02T15:58:47.465Z,25.81
2022-08-02T16:01:25.546Z,25.64
2022-08-02T16:04:11.853Z,26.79
2022-08-02T16:06:39.415Z,26.73
2022-08-02T16:09:14.705Z,26.23
2022-08-02T16:11:43.533Z,25.93
2022-08-02T16:14:16.582Z,26.18
2022-08-02T16:16:49.515Z,25.57
2022-08-02T16:19:46.623Z,27.02
2022-08-02T16:22:05.853Z,25.83
2022-08-02T16:24:43.402Z,25.99
2022-08-02T16:27:17.599Z,26.14
2022-08-02T16:29:53.647Z,26.48
2022-08-02T16:32:37.537Z,26.22
2022-08-02T16:35:16.525Z,27.51
2022-08-02T16:37:52.646Z,26.57
2022-08-02T16:40:31.409Z,26.42
2022-08-02T16:43:08.837Z,25.98
2022-08-02T16:48:19.465Z,25.79
2022-08-02T16:51:27.078Z,26.59
2022-08-02T16:54:21.523Z,26.09
2022-08-02T16:56:50.962Z,27.18
2022-08-02T16:59:41.479Z,25.85
2022-08-02T17:02:18.032Z,27.45
2022-08-02T17:08:15.238Z,26.34
2022-08-02T17:10:23.054Z,27.09
2022-08-02T17:12:54.563Z,26.89
2022-08-02T17:16:01.108Z,28.41
2022-08-02T17:18:14.655Z,28.16
2022-08-02T17:20:56.406Z,27.31
2022-08-02T17:26:35.755Z,27.19
2022-08-02T17:29:15.637Z,29.21
2022-08-02T17:32:04.768Z,29.32
2022-08-02T17:34:38.400Z,29.42
2022-08-02T17:37:07.421Z,28.28
2022-08-02T17:39:43.126Z,28.17
2022-08-02T17:42:23.291Z,28.67
2022-08-02T17:45:16.938Z,28.78
2022-08-02T17:50:30.580Z,29.25
2022-08-02T17:53:09.402Z,27.34
2022-08-02T17:55:42.584Z,28.37
2022-08-02T17:58:21.653Z,27.51
2022-08-02T18:01:23.875Z,28.41
2022-08-02T18:03:57.454Z,28.13
2022-08-02T18:06:37.644Z,28.21
2022-08-02T18:12:02.043Z,27.74
2022-08-02T18:14:36.341Z,28.40
2022-08-02T18:17:20.484Z,28.04
2022-08-02T18:22:48.631Z,28.51
2022-08-02T18:25:36.384Z,29.18
2022-08-02T18:28:17.485Z,29.70
2022-08-02T18:30:51.616Z,29.75
2022-08-02T18:33:59.368Z,29.82
2022-08-02T18:36:24.766Z,29.93
2022-08-02T18:38:54.400Z,30.58
2022-08-02T18:41:27.554Z,32.17
2022-08-02T18:43:57.465Z,31.65
2022-08-02T18:46:38.618Z,31.65
2022-08-02T18:54:40.518Z,32.91
2022-08-02T18:59:54.497Z,32.95
2022-08-02T19:05:06.872Z,33.35
2022-08-02T19:10:29.481Z,34.20
2022-08-02T19:13:03.843Z,34.22
2022-08-02T19:15:55.366Z,34.21
2022-08-02T19:21:17.572Z,35.76
2022-08-02T19:29:43.119Z,36.02
2022-08-02T19:32:40.688Z,36.32
2022-08-02T19:40:34.564Z,37.58
2022-08-02T19:45:50.281Z,38.16
2022-08-02T19:48:30.173Z,39.02
2022-08-02T19:51:54.986Z,38.54
2022-08-02T19:54:13.108Z,38.24
2022-08-02T19:56:50.488Z,38.18
2022-08-02T19:59:25.449Z,39.13
2022-08-02T20:02:16.130Z,38.62
2022-08-02T20:04:57.751Z,39.29
2022-08-02T20:07:49.817Z,40.07
2022-08-02T20:10:24.647Z,40.23
2022-08-02T20:12:56.140Z,40.73
2022-08-02T20:15:56.419Z,40.42
2022-08-02T20:18:42.912Z,40.44
2022-08-02T20:23:55.691Z,39.74
2022-08-02T20:31:41.676Z,41.16
2022-08-02T20:34:12.967Z,40.98
2022-08-02T20:36:43.468Z,40.92
2022-08-02T20:39:42.978Z,40.23
2022-08-02T20:42:24.004Z,39.93
2022-08-02T20:44:56.634Z,39.94
2022-08-02T20:47:39.864Z,40.39
2022-08-02T20:50:35.562Z,40.38
2022-08-02T20:53:06.413Z,40.75
2022-08-02T20:55:36.640Z,40.51
2022-08-02T20:58:16.318Z,41.49
2022-08-02T21:00:46.686Z,41.37
2022-08-02T21:03:16.445Z,41.32
2022-08-02T21:05:55.096Z,41.50
2022-08-02T21:08:26.014Z,41.08
2022-08-02T21:10:55.426Z,40.77
2022-08-02T21:13:26.672Z,41.20
2022-08-02T21:15:57.505Z,42.35
2022-08-02T21:18:40.158Z,42.32
2022-08-02T21:21:09.930Z,43.91
2022-08-02T21:23:48.530Z,43.70
2022-08-02T21:26:27.926Z,43.38
2022-08-02T21:29:04.020Z,43.09
2022-08-02T21:31:36.084Z,42.23
2022-08-02T21:34:19.252Z,42.89
2022-08-02T21:36:50.657Z,42.84
2022-08-02T21:39:20.648Z,43.37
2022-08-02T21:41:49.350Z,43.95
2022-08-02T21:44:21.433Z,43.88
2022-08-02T21:46:53.897Z,43.91
2022-08-02T21:49:40.938Z,44.16
2022-08-02T21:52:13.362Z,44.55
2022-08-02T21:54:41.238Z,44.60
2022-08-02T21:57:16.536Z,44.74
2022-08-02T21:59:46.348Z,45.23
2022-08-02T22:02:16.895Z,44.94
2022-08-02T22:04:48.057Z,45.66
2022-08-02T22:07:23.932Z,45.37
2022-08-02T22:09:53.642Z,45.12
2022-08-02T22:12:27.167Z,45.92
2022-08-02T22:15:02.224Z,46.54
2022-08-02T22:18:00.219Z,46.93
2022-08-02T22:20:29.175Z,47.57
2022-08-02T22:22:57.061Z,47.18
2022-08-02T22:25:36.037Z,46.72
2022-08-02T22:28:36.733Z,46.86
2022-08-02T22:30:58.289Z,47.23
2022-08-02T22:34:00.811Z,48.54
2022-08-02T22:36:38.721Z,47.97
2022-08-02T22:39:19.514Z,47.76
2022-08-02T22:42:05.686Z,48.20
2022-08-02T22:44:35.492Z,47.86
2022-08-02T22:47:14.951Z,48.28
2022-08-02T22:49:53.228Z,48.22
2022-08-02T22:52:29.487Z,48.30
2022-08-02T22:54:57.440Z,48.29
2022-08-02T22:57:30.378Z,48.23
2022-08-02T22:58:38.244Z,27.37
2022-08-02T22:58:58.994Z,27.96
2022-08-02T23:00:00.622Z,49.17
2022-08-02T23:02:28.221Z,48.83
2022-08-02T23:04:58.111Z,49.04
2022-08-02T23:07:26.966Z,49.03
2022-08-02T23:09:54.594Z,49.43
2022-08-02T23:12:22.141Z,49.31
2022-08-02T23:14:54.622Z,49.95
2022-08-02T23:17:42.914Z,50.61
2022-08-02T23:20:13.635Z,50.97
2022-08-02T23:22:41.236Z,50.24
2022-08-02T23:25:10.293Z,51.29
2022-08-02T23:27:38.974Z,51.12
2022-08-02T23:30:19.120Z,50.62
2022-08-02T23:32:47.558Z,51.19
2022-08-02T23:35:17.014Z,50.09
2022-08-02T23:37:58.878Z,50.70
2022-08-02T23:40:39.416Z,50.86
2022-08-02T23:43:12.424Z,50.92
2022-08-02T23:45:46.293Z,50.58
2022-08-02T23:48:14.958Z,50.93
2022-08-02T23:50:42.784Z,51.29
2022-08-02T23:53:10.701Z,51.15
2022-08-02T23:55:38.404Z,51.83
2022-08-02T23:58:06.186Z,50.97
